Latest Coastal Weather Observations for Learmonth

IDW60701

Issued at 8:25 pm WST Tuesday 2 September 2014 (issued every 10 minutes, with the page automatically refreshed every 10 minutes)

About coastal observations | Map of coastal stations | Coastal observations for WA | Marine services | Other Formats
Station Details ID: 005007 Name: LEARMONTH AIRPORT Lat: -22.24 Lon: 114.10 Height: 5.0 m
Data from the previous 72 hours. | See also: Recent months at Learmonth
Date/Time
WST
Temp

°C
Wind Pressure Rain
since 9am
mm
Weather Cloud Vis
km
Sea
Height
m
Swell
Dir
 
Speed
knots
Gust
knots
hPa Trend Height
m
Period
s
Dir
02/08:00pm 21.2 NNW 5 7 1017.0 - 0.0 - - 10 - - - -
02/07:30pm 20.7 NNW 7 7 1016.7 - 0.0 - - 10 - - - -
02/07:00pm 21.1 NNW 6 8 1016.3 - 0.0 - - 10 - - - -
02/06:30pm 21.5 N 6 7 1016.0 - 0.0 - - 10 - - - -
02/06:00pm 23.8 N 7 8 1015.5 - 0.0 - - 10 - - - -
02/05:30pm 25.3 N 7 9 1015.4 - 0.0 - - 10 - - - -
02/05:00pm 26.0 NNE 8 10 1015.2 - 0.0 - - 10 - - - -
02/04:30pm 26.7 NNE 8 10 1014.9 - 0.0 - - 10 - - - -
02/04:00pm 27.2 NE 9 11 1014.8 - 0.0 - - 10 - - - -
02/03:30pm 27.5 NE 9 12 1014.9 - 0.0 - - 10 - - - -
02/03:00pm 27.7 NE 9 13 1014.9 R 0.0 Fine Mostly clear 30 - - - -
02/02:30pm 27.8 NE 11 13 1015.0 - 0.0 - - 10 - - - -
02/02:00pm 27.7 NE 9 12 1015.2 - 0.0 - - 10 - - - -
02/01:30pm 27.7 NE 9 12 1015.6 - 0.0 - - 10 - - - -
02/01:00pm 27.5 ENE 10 12 1016.0 - 0.0 - - 10 - - - -
02/12:30pm 27.2 ENE 10 12 1016.4 - 0.0 - - 10 - - - -
02/12:00pm 26.8 E 9 11 1016.6 R 0.0 Fine Mostly clear 30 - - - -
02/11:30am 26.0 E 9 11 1017.2 - 0.0 - - 10 - - - -
02/11:00am 25.3 E 9 11 1017.6 - 0.0 - - 10 - - - -
02/10:30am 25.4 E 8 10 1017.9 - 0.0 - - 10 - - - -
02/10:00am 25.5 E 6 9 1018.0 - 0.0 - - 10 - - - -
02/09:30am 23.8 SE 3 5 1017.7 - 0.0 - - 10 - - - -
02/09:00am 21.8 S 5 8 1017.3 S 0.0 Fine Mostly clear 30 - - - -
02/08:30am 20.9 S 4 5 1017.2 - 0.0 - - 10 - - - -
02/08:00am 18.1 SSW 3 4 1016.9 - 0.0 - - 10 - - - -
02/07:30am 13.6 WSW 5 6 1016.5 - 0.0 - - 10 - - - -
02/07:00am 11.2 SW 4 5 1016.6 - 0.0 - - 10 - - - -
02/06:30am 11.6 SW 5 6 1016.3 - 0.0 - - 10 - - - -
02/06:00am 12.9 WSW 6 6 1016.0 R 0.0 Fine Mostly clear 30 - - - -
02/05:30am 12.2 WSW 6 8 1015.7 - 0.0 - - 10 - - - -
02/05:00am 12.8 WSW 7 7 1015.4 - 0.0 - - 10 - - - -
02/04:30am 13.0 WSW 6 7 1015.3 - 0.0 - - 10 - - - -
02/04:00am 13.3 W 5 7 1015.1 - 0.0 - - 10 - - - -
02/03:30am 12.5 WSW 6 6 1015.2 - 0.0 - - 10 - - - -
02/03:00am 11.7 WSW 6 7 1015.1 - 0.0 - - 10 - - - -
02/02:30am 13.3 WSW 6 7 1015.3 - 0.0 - - 10 - - - -
02/02:00am 12.6 WSW 5 6 1015.5 - 0.0 - - 10 - - - -
02/01:30am 13.9 W 5 5 1015.6 - 0.0 - - 10 - - - -
02/01:00am 13.4 W 5 5 1015.7 - 0.0 - - 10 - - - -
02/12:30am 13.9 SW 5 5 1015.6 - 0.0 - - 10 - - - -
02/12:00am 13.1 SW 6 7 1015.6 - 0.0 - - 10 - - - -
 
Date/Time
WST
Temp

°C
Wind Pressure Rain
since 9am
mm
Weather Cloud Vis
km
Sea
Height
m
Swell
Dir
 
Speed
knots
Gust
knots
hPa Trend Height
m
Period
s
Dir
01/11:30pm 12.6 SSW 7 8 1015.8 - 0.0 - - 10 - - - -
01/11:00pm 13.8 S 7 8 1015.8 - 0.0 - - 10 - - - -
01/10:30pm 14.6 S 8 9 1016.0 - 0.0 - - 10 - - - -
01/10:00pm 15.2 SSE 9 10 1016.1 - 0.0 - - 10 - - - -
01/09:30pm 16.1 CALM 0 0 1016.1 - 0.0 - - 10 - - - -
01/09:00pm 16.8 SSW 1 6 1015.9 - 0.0 - - 10 - - - -
01/08:30pm 19.7 CALM 0 0 1015.8 - 0.0 - - 10 - - - -
01/08:00pm 21.8 NW 1 4 1015.5 - 0.0 - - 10 - - - -
01/07:30pm 22.9 NW 4 5 1014.9 - 0.0 - - 10 - - - -
01/07:00pm 23.1 NNW 6 7 1014.6 - 0.0 - - 10 - - - -
01/06:30pm 23.5 NNW 7 8 1014.2 - 0.0 - - 10 - - - -
01/06:00pm 26.7 NW 7 10 1013.8 - 0.0 - - 10 - - - -
01/05:30pm 29.0 NNW 8 11 1013.6 - 0.0 - - 10 - - - -
01/05:00pm 30.0 N 10 12 1013.3 - 0.0 - - 10 - - - -
01/04:30pm 29.1 NNE 9 11 1013.3 - 0.0 - - 10 - - - -
01/04:00pm 28.9 NNE 11 14 1013.2 - 0.0 - - 10 - - - -
01/03:30pm 29.6 NNE 11 13 1013.2 - 0.0 - - 10 - - - -
01/03:00pm 31.3 NNE 10 13 1013.0 R 0.0 Fine Mostly clear 30 - - - -
01/02:30pm 31.1 N 10 14 1013.4 - 0.0 - - 10 - - - -
01/02:00pm 30.8 N 11 13 1013.6 - 0.0 - - 10 - - - -
01/01:30pm 30.5 NE 8 10 1014.0 - 0.0 - - 10 - - - -
01/01:00pm 29.9 NE 7 9 1014.3 - 0.0 - - 10 - - - -
01/12:30pm 28.0 NE 7 9 1014.8 - 0.0 - - 10 - - - -
01/12:00pm 27.4 E 7 9 1015.1 F 0.0 Fine Mostly clear 30 - - - -
01/11:30am 26.5 NE 6 8 1015.6 - 0.0 - - 10 - - - -
01/11:00am 27.0 E 5 9 1016.1 - 0.0 - - 10 - - - -
01/10:30am 27.1 ENE 4 8 1016.6 - 0.0 - - 10 - - - -
01/10:00am 25.0 SSE 5 7 1017.0 - 0.0 - - 10 - - - -
01/09:30am 24.3 SE 7 10 1016.9 - 0.0 - - 10 - - - -
01/09:00am 23.2 S 8 12 1016.6 F 0.0 Fine Mostly clear 30 - - - -
01/08:30am 21.7 SSW 8 9 1016.7 - 0.0 - - 10 - - - -
01/08:00am 19.3 SSW 7 9 1016.3 - 0.0 - - 10 - - - -
01/07:30am 15.1 SW 7 8 1016.1 - 0.0 - - 10 - - - -
01/07:00am 12.4 WSW 6 7 1015.8 - 0.0 - - 10 - - - -
01/06:30am 12.6 WSW 6 8 1015.6 - 0.0 - - 10 - - - -
01/06:00am 13.1 W 5 6 1015.4 S 0.0 Fine Partly cloudy 30 - - - -
01/05:30am 13.7 W 5 7 1015.3 - 0.0 - - 10 - - - -
01/05:00am 13.7 W 4 6 1015.1 - 0.0 - - 10 - - - -
01/04:30am 15.1 W 6 7 1015.0 - 0.0 - - 10 - - - -
01/04:00am 15.1 WSW 7 8 1015.0 - 0.0 - - 10 - - - -
01/03:30am 15.9 W 6 7 1014.9 - 0.0 - - 10 - - - -
01/03:00am 15.8 WSW 6 7 1014.9 - 0.0 - - 10 - - - -
01/02:30am 15.3 SW 7 8 1015.1 - 0.0 - - 10 - - - -
01/02:00am 15.7 SW 7 8 1015.2 - 0.0 - - 10 - - - -
01/01:30am 15.7 SW 8 9 1015.5 - 0.0 - - 10 - - - -
01/01:00am 16.7 SSW 9 10 1015.6 - 0.0 - - 10 - - - -
01/12:30am 17.2 SW 8 10 1015.8 - 0.0 - - 10 - - - -
01/12:00am 17.6 SW 7 9 1015.8 - 0.0 - - 10 - - - -
 
Date/Time
WST
Temp

°C
Wind Pressure Rain
since 9am
mm
Weather Cloud Vis
km
Sea
Height
m
Swell
Dir
 
Speed
knots
Gust
knots
hPa Trend Height
m
Period
s
Dir
31/11:30pm 17.6 SW 7 8 1015.9 - 0.0 - - 10 - - - -
31/11:00pm 18.0 SSW 7 9 1016.0 - 0.0 - - 10 - - - -
31/10:30pm 18.8 SSW 9 12 1015.9 - 0.0 - - 10 - - - -
31/10:00pm 19.4 SSW 10 13 1016.0 - 0.0 - - 10 - - - -
31/09:30pm 19.8 SSW 10 14 1016.0 - 0.0 - - 10 - - - -
31/09:00pm 20.3 SSW 11 15 1015.9 - 0.0 - - 10 - - - -
31/08:30pm 20.9 SSW 11 15 1015.8 - 0.0 - - 10 - - - -
31/08:00pm 21.7 SSW 11 14 1015.6 - 0.0 - - 10 - - - -
31/07:30pm 22.4 SSW 11 15 1015.2 - 0.0 - - 10 - - - -
31/07:00pm 23.5 SW 10 14 1015.0 - 0.0 - - 10 - - - -
31/06:30pm 24.6 SSW 10 13 1014.6 - 0.0 - - 10 - - - -
31/06:00pm 27.0 SW 5 6 1014.0 - 0.0 - - 10 - - - -
31/05:30pm 30.5 SSW 1 6 1014.0 - 0.0 - - 10 - - - -
31/05:00pm 30.9 W 3 5 1013.9 - 0.0 - - 10 - - - -
31/04:30pm 31.2 WNW 4 6 1013.7 - 0.0 - - 10 - - - -
31/04:00pm 31.1 WNW 3 6 1013.7 - 0.0 - - 10 - - - -
31/03:30pm 30.8 E 5 8 1013.8 - 0.0 - - 10 - - - -
31/03:00pm 30.3 ENE 7 11 1013.9 - 0.0 - - 10 - - - -
31/02:30pm 30.0 E 9 12 1014.2 - 0.0 - - 10 - - - -
31/02:00pm 30.7 SE 10 13 1014.5 - 0.0 - - 10 - - - -
31/01:30pm 29.6 SE 10 16 1015.0 - 0.0 - - 10 - - - -
31/01:00pm 29.6 SE 10 16 1015.3 - 0.0 - - 10 - - - -
31/12:30pm 28.2 SE 6 11 1015.7 - 0.0 - - 10 - - - -
31/12:00pm 27.5 SE 8 12 1016.1 - 0.0 - - 10 - - - -
31/11:30am 26.3 SE 9 12 1016.7 - 0.0 - - 10 - - - -
31/11:00am 25.4 SE 10 13 1017.2 - 0.0 - - 10 - - - -
31/10:30am 24.8 SE 11 15 1017.6 - 0.0 - - 10 - - - -
31/10:00am 24.7 SSE 12 15 1018.0 - 0.0 - - 10 - - - -
31/09:30am 22.8 SSE 11 14 1018.2 - 0.0 - - 10 - - - -
31/09:00am 21.3 SSE 10 14 1018.2 - 0.0 - - 10 - - - -
31/08:30am 19.9 S 7 9 1018.2 - 0.0 - - 10 - - - -
31/08:00am 18.2 SSW 7 9 1018.0 - 0.0 - - 10 - - - -
31/07:30am 16.3 SW 7 8 1017.8 - 0.0 - - 10 - - - -
31/07:00am 13.6 WSW 7 8 1017.4 - 0.0 - - 10 - - - -
31/06:30am 13.2 WSW 7 8 1017.2 - 0.0 - - 10 - - - -
31/06:00am 12.9 WSW 7 8 1016.9 - 0.0 - - 10 - - - -
31/05:30am 13.1 WSW 7 8 1016.7 - 0.0 - - 10 - - - -
31/05:00am 13.1 SW 7 8 1016.6 - 0.0 - - 10 - - - -
31/04:30am 13.2 SW 7 8 1016.4 - 0.0 - - 10 - - - -
31/04:00am 13.3 SW 7 9 1016.3 - 0.0 - - 10 - - - -
31/03:30am 13.3 SW 8 10 1016.4 - 0.0 - - 10 - - - -
31/03:00am 13.3 SW 8 9 1016.2 - 0.0 - - 10 - - - -
31/02:30am 14.5 SW 7 8 1016.3 - 0.0 - - 10 - - - -
31/02:00am 14.9 SW 7 8 1016.2 - 0.0 - - 10 - - - -
31/01:30am 15.1 SW 8 10 1016.2 - 0.0 - - 10 - - - -
31/01:00am 16.1 SW 8 9 1016.4 - 0.0 - - 10 - - - -
31/12:30am 17.0 SW 8 9 1016.5 - 0.0 - - 10 - - - -
31/12:00am 18.1 SSW 9 11 1016.5 - 0.0 - - 10 - - - -
 
Date/Time
WST
Temp

°C
Wind Pressure Rain
since 9am
mm
Weather Cloud Vis
km
Sea
Height
m
Swell
Dir
 
Speed
knots
Gust
knots
hPa Trend Height
m
Period
s
Dir
30/11:30pm 18.5 SSW 9 12 1016.7 - 0.0 - - 10 - - - -
30/11:00pm 16.7 SSW 8 9 1016.6 - 0.0 - - 10 - - - -
30/10:30pm 16.4 SSW 9 9 1016.7 - 0.0 - - 10 - - - -
30/10:00pm 15.3 SSW 8 9 1016.9 - 0.0 - - 10 - - - -
30/09:30pm 16.1 SW 8 8 1016.9 - 0.0 - - 10 - - - -
30/09:00pm 16.4 SW 7 8 1016.9 - 0.0 - - 10 - - - -
30/08:30pm 17.3 SW 6 7 1017.0 - 0.0 - - 10 - - - -

Other Formats:

Comma delimited format used in spreadsheet applications
http://www.bom.gov.au/fwo/IDW60701/IDW60701.94302.axf

JavaScript Object Notation format (JSON) in row-major order
http://www.bom.gov.au/fwo/IDW60701/IDW60701.94302.json